createdAt,value
2022-09-11T00:01:28.347Z,34.25
2022-09-11T00:03:56.506Z,29.20
2022-09-11T00:06:29.912Z,25.63
2022-09-11T00:09:00.530Z,20.73
2022-09-11T00:11:29.835Z,35.45
2022-09-11T00:13:58.850Z,38.33
2022-09-11T00:16:28.753Z,20.90
2022-09-11T00:18:59.236Z,17.70
2022-09-11T00:21:27.348Z,26.35
2022-09-11T00:23:54.830Z,24.50
2022-09-11T00:26:24.675Z,41.58
2022-09-11T00:28:52.535Z,30.05
2022-09-11T00:31:23.838Z,24.63
2022-09-11T00:33:51.946Z,29.25
2022-09-11T00:36:21.047Z,29.25
2022-09-11T00:38:49.400Z,25.55
2022-09-11T00:41:19.486Z,19.88
2022-09-11T00:43:53.625Z,26.13
2022-09-11T00:46:24.535Z,33.63
2022-09-11T00:48:52.059Z,31.65
2022-09-11T00:51:23.984Z,33.47
2022-09-11T00:53:54.275Z,32.80
2022-09-11T00:56:24.074Z,28.77
2022-09-11T00:58:54.737Z,26.20
2022-09-11T01:01:23.790Z,34.83
2022-09-11T01:03:51.882Z,21.35
2022-09-11T01:06:21.174Z,28.45
2022-09-11T01:08:48.712Z,21.77
2022-09-11T01:11:34.317Z,29.27
2022-09-11T01:14:10.476Z,22.15
2022-09-11T01:16:44.391Z,27.40
2022-09-11T01:19:28.573Z,30.80
2022-09-11T01:22:14.702Z,28.13
2022-09-11T01:24:56.428Z,26.77
2022-09-11T01:27:42.994Z,24.23
2022-09-11T01:30:14.151Z,33.55
2022-09-11T01:33:12.152Z,20.05
2022-09-11T01:35:50.350Z,33.97
2022-09-11T01:38:23.088Z,23.85
2022-09-11T01:40:55.477Z,26.13
2022-09-11T01:43:28.891Z,27.38
2022-09-11T01:46:00.282Z,32.08
2022-09-11T01:48:32.828Z,26.05
2022-09-11T01:51:03.443Z,29.63
2022-09-11T01:53:37.366Z,38.90
2022-09-11T01:56:10.666Z,26.90
2022-09-11T01:58:42.023Z,38.38
2022-09-11T02:01:13.165Z,24.50
2022-09-11T02:03:45.694Z,31.98
2022-09-11T02:06:18.906Z,27.83
2022-09-11T02:08:51.672Z,20.95
2022-09-11T02:11:20.463Z,26.13
2022-09-11T02:13:56.830Z,16.30
2022-09-11T02:16:37.944Z,31.08
2022-09-11T02:19:07.144Z,23.17
2022-09-11T02:21:35.639Z,36.95
2022-09-11T02:24:04.090Z,36.97
2022-09-11T02:26:34.819Z,31.42
2022-09-11T02:29:04.207Z,34.08
2022-09-11T02:31:32.218Z,24.75
2022-09-11T02:33:59.732Z,38.30
2022-09-11T02:36:53.314Z,28.35
2022-09-11T02:39:35.149Z,29.20
2022-09-11T02:42:18.121Z,31.55
2022-09-11T02:44:59.947Z,29.52
2022-09-11T02:47:42.247Z,31.35
2022-09-11T02:50:15.226Z,50.47
2022-09-11T02:52:49.906Z,44.28
2022-09-11T02:55:24.019Z,27.23
2022-09-11T02:57:58.234Z,27.35
2022-09-11T03:00:27.562Z,36.17
2022-09-11T03:02:55.360Z,27.95
2022-09-11T03:05:23.172Z,27.20
2022-09-11T03:07:50.677Z,36.95
2022-09-11T03:10:18.156Z,37.75
2022-09-11T03:12:45.639Z,33.28
2022-09-11T03:15:13.398Z,47.10
2022-09-11T03:17:42.799Z,42.35
2022-09-11T03:20:10.754Z,32.53
2022-09-11T03:22:39.683Z,31.10
2022-09-11T03:25:08.143Z,23.50
2022-09-11T03:27:36.463Z,27.45
2022-09-11T03:30:04.030Z,57.15
2022-09-11T03:32:32.292Z,15.20
2022-09-11T03:35:02.313Z,46.95
2022-09-11T03:37:29.779Z,38.83
2022-09-11T03:39:57.278Z,35.97
2022-09-11T03:42:24.831Z,37.42
2022-09-11T03:44:52.306Z,37.33
2022-09-11T03:47:22.123Z,54.45
2022-09-11T03:49:49.767Z,37.70
2022-09-11T03:52:18.575Z,28.70
2022-09-11T03:54:47.576Z,35.55
2022-09-11T03:57:15.090Z,30.38
2022-09-11T03:59:42.543Z,35.17
2022-09-11T04:02:10.063Z,24.58
2022-09-11T04:04:37.711Z,29.55
2022-09-11T04:07:05.365Z,29.42
2022-09-11T04:09:34.322Z,45.53
2022-09-11T04:12:02.826Z,34.50
2022-09-11T04:14:30.319Z,37.33
2022-09-11T04:16:57.747Z,53.00
2022-09-11T04:19:25.243Z,45.88
2022-09-11T04:21:52.698Z,24.63
2022-09-11T04:24:20.160Z,33.42
2022-09-11T04:26:49.074Z,28.90
2022-09-11T04:29:17.731Z,37.50
2022-09-11T04:31:45.334Z,36.35
2022-09-11T04:34:12.842Z,23.42
2022-09-11T04:36:40.433Z,31.10
2022-09-11T04:39:07.912Z,30.33
2022-09-11T04:41:35.376Z,32.83
2022-09-11T04:44:05.747Z,53.05
2022-09-11T04:46:33.405Z,46.78
2022-09-11T04:49:02.158Z,33.47
2022-09-11T04:51:32.021Z,57.20
2022-09-11T04:54:00.975Z,40.10
2022-09-11T04:56:30.573Z,38.33
2022-09-11T04:59:00.005Z,26.65
2022-09-11T05:01:30.870Z,25.33
2022-09-11T05:04:00.430Z,28.95
2022-09-11T05:06:30.190Z,27.08
2022-09-11T05:09:01.427Z,30.73
2022-09-11T05:11:30.076Z,34.20
2022-09-11T05:14:00.031Z,28.70
2022-09-11T05:16:30.905Z,40.90
2022-09-11T05:19:00.081Z,39.70
2022-09-11T05:21:29.024Z,38.58
2022-09-11T05:23:58.543Z,31.10
2022-09-11T05:26:27.853Z,30.20
2022-09-11T05:28:56.194Z,26.88
2022-09-11T05:31:25.266Z,26.63
2022-09-11T05:33:55.821Z,21.40
2022-09-11T05:36:24.524Z,43.20
2022-09-11T05:38:52.772Z,31.02
2022-09-11T05:41:20.948Z,22.95
2022-09-11T05:43:48.571Z,21.25
2022-09-11T05:46:18.201Z,31.75
2022-09-11T05:48:46.176Z,19.48
2022-09-11T05:51:17.112Z,41.03
2022-09-11T05:53:46.019Z,41.53
2022-09-11T05:56:15.806Z,26.70
2022-09-11T05:58:43.716Z,22.27
2022-09-11T06:01:13.265Z,24.60
2022-09-11T06:03:41.168Z,25.38
2022-09-11T06:06:10.726Z,31.35
2022-09-11T06:08:40.092Z,26.92
2022-09-11T06:11:08.751Z,32.97
2022-09-11T06:13:39.388Z,39.05
2022-09-11T06:16:12.571Z,27.13
2022-09-11T06:18:42.184Z,35.55
2022-09-11T06:21:13.154Z,29.80
2022-09-11T06:23:42.142Z,33.30
2022-09-11T06:26:11.992Z,20.70
2022-09-11T06:28:40.239Z,22.35
2022-09-11T06:31:10.674Z,18.02
2022-09-11T06:33:40.248Z,21.08
2022-09-11T06:36:11.119Z,18.85
2022-09-11T06:38:39.119Z,25.65
2022-09-11T06:41:10.368Z,15.80
2022-09-11T06:43:37.832Z,12.27
2022-09-11T06:46:05.751Z,22.20
2022-09-11T06:48:33.682Z,24.48
2022-09-11T06:51:03.944Z,12.27
2022-09-11T06:53:31.486Z,16.77
2022-09-11T06:56:02.320Z,12.13
2022-09-11T06:58:31.485Z,18.15
2022-09-11T07:01:03.774Z,15.98
2022-09-11T07:03:31.612Z,13.75
2022-09-11T07:05:59.291Z,6.32
2022-09-11T07:08:26.861Z,10.07
2022-09-11T07:10:54.600Z,8.68
2022-09-11T07:13:24.342Z,11.82
2022-09-11T07:16:02.211Z,11.30
2022-09-11T07:18:34.117Z,21.52
2022-09-11T07:21:01.619Z,19.85
2022-09-11T07:23:29.080Z,22.25
2022-09-11T07:25:56.536Z,12.38
2022-09-11T07:28:25.376Z,9.00
2022-09-11T07:30:52.876Z,19.98
2022-09-11T07:33:23.027Z,7.28
2022-09-11T07:35:52.266Z,3.05
2022-09-11T07:38:19.712Z,5.82
2022-09-11T07:40:47.691Z,17.05
2022-09-11T07:43:15.271Z,15.63
2022-09-11T07:45:42.764Z,13.07
2022-09-11T07:48:10.316Z,16.60
2022-09-11T07:50:39.075Z,19.48
2022-09-11T07:53:07.083Z,18.88
2022-09-11T07:55:35.532Z,9.00
2022-09-11T07:58:02.951Z,23.25
2022-09-11T08:00:35.141Z,18.92
2022-09-11T08:03:04.621Z,14.25
2022-09-11T08:05:32.054Z,19.83
2022-09-11T08:08:00.809Z,21.40
2022-09-11T08:10:28.407Z,16.88
2022-09-11T08:12:59.552Z,14.55
2022-09-11T08:15:27.720Z,20.65
2022-09-11T08:17:55.154Z,11.00
2022-09-11T08:20:22.667Z,7.82
2022-09-11T08:22:50.370Z,21.27
2022-09-11T08:25:19.212Z,18.27
2022-09-11T08:27:46.620Z,26.42
2022-09-11T08:30:14.204Z,26.23
2022-09-11T08:32:41.626Z,11.02
2022-09-11T08:35:09.583Z,28.65
2022-09-11T08:37:37.013Z,22.92
2022-09-11T08:40:04.905Z,23.67
2022-09-11T08:42:35.628Z,19.52
2022-09-11T08:45:06.663Z,19.90
2022-09-11T08:47:37.831Z,25.55
2022-09-11T08:50:10.483Z,15.45
2022-09-11T08:52:38.438Z,26.20
2022-09-11T08:55:06.800Z,26.48
2022-09-11T08:57:45.004Z,30.02
2022-09-11T09:00:19.840Z,25.70
2022-09-11T09:03:21.342Z,29.88
2022-09-11T09:05:55.591Z,6.40
2022-09-11T09:08:40.378Z,31.13
2022-09-11T09:11:20.364Z,17.55
2022-09-11T09:14:05.831Z,21.92
2022-09-11T09:16:45.300Z,33.13
2022-09-11T09:19:17.341Z,20.70
2022-09-11T09:21:50.499Z,11.93
2022-09-11T09:24:20.287Z,29.55
2022-09-11T09:26:52.566Z,10.60
2022-09-11T09:29:23.842Z,10.65
2022-09-11T09:31:59.252Z,15.52
2022-09-11T09:34:34.694Z,20.52
2022-09-11T09:37:07.551Z,11.02
2022-09-11T09:39:36.509Z,6.13
2022-09-11T09:42:28.186Z,8.93
2022-09-11T09:45:20.143Z,6.50
2022-09-11T09:47:49.301Z,18.60
2022-09-11T09:50:20.169Z,16.25
2022-09-11T09:52:49.806Z,6.75
2022-09-11T09:55:19.919Z,14.73
2022-09-11T09:57:47.515Z,12.57
2022-09-11T10:00:19.951Z,4.13
2022-09-11T10:02:51.566Z,13.52
2022-09-11T10:05:24.999Z,30.52
2022-09-11T10:07:54.214Z,19.30
2022-09-11T10:10:24.832Z,9.27
2022-09-11T10:12:59.904Z,6.13
2022-09-11T10:15:42.895Z,21.20
2022-09-11T10:18:35.883Z,11.73
2022-09-11T10:21:16.737Z,13.07
2022-09-11T10:23:46.936Z,16.17
2022-09-11T10:26:18.042Z,19.38
2022-09-11T10:28:46.898Z,25.33
2022-09-11T10:31:17.381Z,20.88
2022-09-11T10:33:49.995Z,31.02
2022-09-11T10:36:23.439Z,10.23
2022-09-11T10:38:51.876Z,16.35
2022-09-11T10:41:22.868Z,14.50
2022-09-11T10:43:55.909Z,17.15
2022-09-11T10:46:39.871Z,11.48
2022-09-11T10:49:18.495Z,20.00
2022-09-11T10:52:00.000Z,20.90
2022-09-11T10:54:39.139Z,19.90
2022-09-11T10:57:16.110Z,17.50
2022-09-11T10:59:51.352Z,17.08
2022-09-11T11:02:28.498Z,21.02
2022-09-11T11:04:57.067Z,15.48
2022-09-11T11:07:45.110Z,10.60
2022-09-11T11:10:24.347Z,16.80
2022-09-11T11:13:05.117Z,21.00
2022-09-11T11:15:46.479Z,17.45
2022-09-11T11:18:31.259Z,12.77
2022-09-11T11:21:12.815Z,11.73
2022-09-11T11:23:51.648Z,27.50
2022-09-11T11:26:37.570Z,16.10
2022-09-11T11:29:31.824Z,17.40
2022-09-11T11:32:14.403Z,20.88
2022-09-11T11:35:03.058Z,16.25
2022-09-11T11:37:34.918Z,15.50
2022-09-11T11:40:06.493Z,19.45
2022-09-11T11:42:38.614Z,14.18
2022-09-11T11:45:11.546Z,22.90
2022-09-11T11:47:44.675Z,13.73
2022-09-11T11:50:21.311Z,20.42
2022-09-11T11:52:57.931Z,21.27
2022-09-11T11:55:27.898Z,15.35
2022-09-11T11:58:02.328Z,23.70
2022-09-11T12:00:31.530Z,18.35
2022-09-11T12:03:05.684Z,13.10
2022-09-11T12:05:36.188Z,17.80
2022-09-11T12:08:04.635Z,16.83
2022-09-11T12:10:35.357Z,12.63
2022-09-11T12:13:07.309Z,22.63
2022-09-11T12:15:35.658Z,16.50
2022-09-11T12:18:05.431Z,6.68
2022-09-11T12:20:40.710Z,22.13
2022-09-11T12:23:35.678Z,13.52
2022-09-11T12:26:19.779Z,22.92
2022-09-11T12:28:47.506Z,20.17
2022-09-11T12:31:16.558Z,4.10
2022-09-11T12:33:54.479Z,16.70
2022-09-11T12:36:30.902Z,13.45
2022-09-11T12:39:03.455Z,19.73
2022-09-11T12:41:33.703Z,6.18
2022-09-11T12:44:01.840Z,14.02
2022-09-11T12:47:11.829Z,16.55
2022-09-11T12:49:41.393Z,18.20
2022-09-11T12:52:24.796Z,15.77
2022-09-11T12:54:52.994Z,10.02
2022-09-11T12:57:27.131Z,7.35
2022-09-11T12:59:59.302Z,5.53
2022-09-11T13:02:34.276Z,6.25
2022-09-11T13:05:02.542Z,5.32
2022-09-11T13:07:44.302Z,7.85
2022-09-11T13:10:30.348Z,5.47
2022-09-11T13:12:59.230Z,6.32
2022-09-11T13:15:38.702Z,6.13
2022-09-11T13:18:43.666Z,7.75
2022-09-11T13:21:17.257Z,6.72
2022-09-11T13:23:46.963Z,7.20
2022-09-11T13:26:26.869Z,5.38
2022-09-11T13:28:57.908Z,4.65
2022-09-11T13:31:33.690Z,5.78
2022-09-11T13:34:03.769Z,5.38
2022-09-11T13:36:33.156Z,4.85
2022-09-11T13:39:04.983Z,11.05
2022-09-11T13:41:37.710Z,18.10
2022-09-11T13:44:11.380Z,20.05
2022-09-11T13:46:50.007Z,16.23
2022-09-11T13:49:29.809Z,11.55
2022-09-11T13:51:57.298Z,16.95
2022-09-11T13:54:30.151Z,23.90
2022-09-11T13:57:14.881Z,23.30
2022-09-11T13:59:48.178Z,19.30
2022-09-11T14:02:46.350Z,21.20
2022-09-11T14:05:20.462Z,19.67
2022-09-11T14:07:57.249Z,15.10
2022-09-11T14:10:29.955Z,15.07
2022-09-11T14:13:04.123Z,10.30
2022-09-11T14:15:40.064Z,11.60
2022-09-11T14:18:14.615Z,22.13
2022-09-11T14:20:45.712Z,12.40
2022-09-11T14:23:19.940Z,14.52
2022-09-11T14:26:14.752Z,22.73
2022-09-11T14:28:45.780Z,22.08
2022-09-11T14:31:14.956Z,24.45
2022-09-11T14:33:42.948Z,14.52
2022-09-11T14:36:19.405Z,20.85
2022-09-11T14:38:48.108Z,19.73
2022-09-11T14:41:16.922Z,26.30
2022-09-11T14:43:48.854Z,22.30
2022-09-11T14:46:16.905Z,23.70
2022-09-11T14:48:44.479Z,23.35
2022-09-11T14:51:13.684Z,9.93
2022-09-11T14:53:43.383Z,19.88
2022-09-11T14:56:11.092Z,12.07
2022-09-11T14:58:40.219Z,16.85
2022-09-11T15:01:07.681Z,8.25
2022-09-11T15:03:35.225Z,8.95
2022-09-11T15:06:02.738Z,10.25
2022-09-11T15:08:30.232Z,7.25
2022-09-11T15:10:57.667Z,22.15
2022-09-11T15:13:25.231Z,21.50
2022-09-11T15:15:54.045Z,10.20
2022-09-11T15:18:21.875Z,11.50
2022-09-11T15:20:49.343Z,13.82
2022-09-11T15:23:17.388Z,8.70
2022-09-11T15:25:44.908Z,14.05
2022-09-11T15:28:12.555Z,9.48
2022-09-11T15:30:40.025Z,9.38
2022-09-11T15:33:09.399Z,18.38
2022-09-11T15:35:36.863Z,13.70
2022-09-11T15:38:05.592Z,23.33
2022-09-11T15:40:33.212Z,21.98
2022-09-11T15:43:00.650Z,22.08
2022-09-11T15:45:28.128Z,15.25
2022-09-11T15:47:55.575Z,24.83
2022-09-11T15:50:28.279Z,28.20
2022-09-11T15:52:55.769Z,22.98
2022-09-11T15:55:23.292Z,16.88
2022-09-11T15:57:50.760Z,24.77
2022-09-11T16:00:18.345Z,22.50
2022-09-11T16:02:45.812Z,12.85
2022-09-11T16:05:14.431Z,23.02
2022-09-11T16:07:43.224Z,21.23
2022-09-11T16:10:10.971Z,27.45
2022-09-11T16:12:39.497Z,22.45
2022-09-11T16:15:07.968Z,23.25
2022-09-11T16:17:35.418Z,25.40
2022-09-11T16:20:03.287Z,23.75
2022-09-11T16:22:31.311Z,31.50
2022-09-11T16:25:00.421Z,11.45
2022-09-11T16:27:27.914Z,23.35
2022-09-11T16:32:43.300Z,10.15
2022-09-11T16:35:13.270Z,19.58
2022-09-11T16:37:41.204Z,15.70
2022-09-11T16:40:10.806Z,6.72
2022-09-11T16:42:38.292Z,13.38
2022-09-11T16:45:06.612Z,9.30
2022-09-11T16:47:34.598Z,6.00
2022-09-11T16:50:07.481Z,10.90
2022-09-11T16:52:35.583Z,5.22
2022-09-11T16:55:03.461Z,4.45
2022-09-11T16:57:32.465Z,6.80
2022-09-11T17:00:00.082Z,5.03
2022-09-11T17:02:27.806Z,5.22
2022-09-11T17:04:55.274Z,5.10
2022-09-11T17:07:23.680Z,4.88
2022-09-11T17:09:51.122Z,6.93
2022-09-11T17:12:18.585Z,11.68
2022-09-11T17:14:47.395Z,8.38
2022-09-11T17:17:14.856Z,8.38
2022-09-11T17:19:42.683Z,10.63
2022-09-11T17:22:10.260Z,12.98
2022-09-11T17:24:37.756Z,12.38
2022-09-11T17:27:05.514Z,9.82
2022-09-11T17:29:32.992Z,9.82
2022-09-11T17:32:26.139Z,10.13
2022-09-11T17:34:49.242Z,10.15
2022-09-11T17:37:16.966Z,11.18
2022-09-11T17:39:44.794Z,9.35
2022-09-11T17:42:13.456Z,9.98
2022-09-11T17:44:42.331Z,10.45
2022-09-11T17:47:11.172Z,13.40
2022-09-11T17:49:38.735Z,13.07
2022-09-11T17:52:07.196Z,13.45
2022-09-11T17:54:34.867Z,12.95
2022-09-11T17:57:02.408Z,12.60
2022-09-11T17:59:29.918Z,13.07
2022-09-11T18:01:58.982Z,12.70
2022-09-11T18:04:27.874Z,14.65
2022-09-11T18:06:55.336Z,15.88
2022-09-11T18:09:23.146Z,13.35
2022-09-11T18:11:53.779Z,27.65
2022-09-11T18:14:21.580Z,30.35
2022-09-11T18:16:49.288Z,42.75
2022-09-11T18:19:20.137Z,28.42
2022-09-11T18:21:50.504Z,36.63
2022-09-11T18:24:20.516Z,28.80
2022-09-11T18:26:50.712Z,34.25
2022-09-11T18:29:20.257Z,44.13
2022-09-11T18:31:50.144Z,31.75
2022-09-11T18:34:20.055Z,35.88
2022-09-11T18:36:49.654Z,31.88
2022-09-11T18:39:19.351Z,49.65
2022-09-11T18:41:48.274Z,35.83
2022-09-11T18:44:19.857Z,44.65
2022-09-11T18:46:47.889Z,47.97
2022-09-11T18:49:16.600Z,55.45
2022-09-11T18:51:44.318Z,20.98
2022-09-11T18:54:15.434Z,34.67
2022-09-11T18:56:43.549Z,36.88
2022-09-11T18:59:11.846Z,39.70
2022-09-11T19:01:39.936Z,57.90
2022-09-11T19:04:10.060Z,31.10
2022-09-11T19:06:39.490Z,24.58
2022-09-11T19:09:10.094Z,27.45
2022-09-11T19:11:39.461Z,30.17
2022-09-11T19:14:09.337Z,23.58
2022-09-11T19:16:37.920Z,25.17
2022-09-11T19:19:06.954Z,33.92
2022-09-11T19:21:35.125Z,32.00
2022-09-11T19:24:03.236Z,20.05
2022-09-11T19:26:32.598Z,17.77
2022-09-11T19:29:01.899Z,26.88
2022-09-11T19:31:30.357Z,27.15
2022-09-11T19:34:00.728Z,26.95
2022-09-11T19:36:30.140Z,23.00
2022-09-11T19:39:00.630Z,25.23
2022-09-11T19:41:30.940Z,20.80
2022-09-11T19:44:00.381Z,16.30
2022-09-11T19:46:31.523Z,15.15
2022-09-11T19:49:01.364Z,16.95
2022-09-11T19:51:30.780Z,26.38
2022-09-11T19:54:00.672Z,23.65
2022-09-11T19:56:29.220Z,14.80
2022-09-11T19:58:56.946Z,17.65
2022-09-11T20:01:26.339Z,20.10
2022-09-11T20:03:56.397Z,18.83
2022-09-11T20:06:25.513Z,19.35
2022-09-11T20:09:13.383Z,16.88
2022-09-11T20:11:41.583Z,17.95
2022-09-11T20:14:09.481Z,15.82
2022-09-11T20:16:37.168Z,14.75
2022-09-11T20:19:06.577Z,19.70
2022-09-11T20:21:36.005Z,15.82
2022-09-11T20:24:05.170Z,14.88
2022-09-11T20:26:33.327Z,14.85
2022-09-11T20:29:02.905Z,15.73
2022-09-11T20:31:32.431Z,26.23
2022-09-11T20:34:00.856Z,16.65
2022-09-11T20:36:30.211Z,16.35
2022-09-11T20:39:00.620Z,28.75
2022-09-11T20:41:30.443Z,18.02
2022-09-11T20:44:00.523Z,19.70
2022-09-11T20:46:28.233Z,17.42
2022-09-11T20:48:55.843Z,14.23
2022-09-11T20:51:24.138Z,15.35
2022-09-11T20:53:52.983Z,15.73
2022-09-11T20:56:23.405Z,15.23
2022-09-11T20:58:51.414Z,17.50
2022-09-11T21:01:22.315Z,28.83
2022-09-11T21:03:52.337Z,15.23
2022-09-11T21:06:25.386Z,17.33
2022-09-11T21:08:56.546Z,15.52
2022-09-11T21:11:24.487Z,20.30
2022-09-11T21:13:52.320Z,14.40
2022-09-11T21:16:20.531Z,18.83
2022-09-11T21:18:50.269Z,15.18
2022-09-11T21:21:18.745Z,20.13
2022-09-11T21:23:46.545Z,16.83
2022-09-11T21:26:18.059Z,15.30
2022-09-11T21:28:45.936Z,28.48
2022-09-11T21:31:13.964Z,22.67
2022-09-11T21:33:41.572Z,22.83
2022-09-11T21:36:09.182Z,23.45
2022-09-11T21:38:37.576Z,21.58
2022-09-11T21:41:06.953Z,20.20
2022-09-11T21:43:36.307Z,28.10
2022-09-11T21:46:05.287Z,20.67
2022-09-11T21:48:35.922Z,16.55
2022-09-11T21:51:07.848Z,18.25
2022-09-11T21:53:35.413Z,17.77
2022-09-11T21:56:03.363Z,26.80
2022-09-11T21:58:31.008Z,15.90
2022-09-11T22:01:05.870Z,15.82
2022-09-11T22:03:34.396Z,17.50
2022-09-11T22:06:06.540Z,22.27
2022-09-11T22:08:35.247Z,24.90
2022-09-11T22:11:04.202Z,28.77
2022-09-11T22:13:32.290Z,28.65
2022-09-11T22:16:00.327Z,27.05
2022-09-11T22:18:29.228Z,26.40
2022-09-11T22:21:00.346Z,27.05
2022-09-11T22:23:29.349Z,36.95
2022-09-11T22:26:00.496Z,25.25
2022-09-11T22:28:28.537Z,34.97
2022-09-11T22:30:56.229Z,31.05
2022-09-11T22:33:24.173Z,34.72
2022-09-11T22:35:53.064Z,33.05
2022-09-11T22:38:20.514Z,39.60
2022-09-11T22:40:53.149Z,29.10
2022-09-11T22:43:20.621Z,25.77
2022-09-11T22:45:52.045Z,24.38
2022-09-11T22:48:19.571Z,33.45
2022-09-11T22:50:47.593Z,42.10
2022-09-11T22:53:16.463Z,44.30
2022-09-11T22:55:44.738Z,22.55
2022-09-11T22:58:12.560Z,28.77
2022-09-11T23:00:40.947Z,32.33
2022-09-11T23:03:08.569Z,42.80
2022-09-11T23:05:53.961Z,44.00
2022-09-11T23:08:22.841Z,33.78
2022-09-11T23:10:50.266Z,22.92
2022-09-11T23:13:17.708Z,21.00
2022-09-11T23:15:45.166Z,19.48
2022-09-11T23:18:12.603Z,24.67
2022-09-11T23:20:40.080Z,19.58
2022-09-11T23:23:07.615Z,26.67
2022-09-11T23:25:42.096Z,20.83
2022-09-11T23:28:09.552Z,19.20
2022-09-11T23:30:39.228Z,17.88
2022-09-11T23:33:07.094Z,37.13
2022-09-11T23:35:34.729Z,35.70
2022-09-11T23:38:02.176Z,17.52
2022-09-11T23:40:33.326Z,19.05
2022-09-11T23:43:02.735Z,24.58
2022-09-11T23:45:30.403Z,24.77
2022-09-11T23:47:57.955Z,29.50
2022-09-11T23:50:25.403Z,32.30
2022-09-11T23:52:52.860Z,25.92
2022-09-11T23:55:20.432Z,32.35
2022-09-11T23:57:48.094Z,34.85
